createdAt,value
2023-04-09T00:06:34.239Z,66.07
2023-04-09T00:17:00.148Z,65.60
2023-04-09T00:27:25.993Z,65.73
2023-04-09T00:37:51.769Z,65.69
2023-04-09T00:48:18.858Z,66.22
2023-04-09T00:58:44.599Z,66.42
2023-04-09T01:09:17.941Z,66.30
2023-04-09T01:19:56.129Z,66.05
2023-04-09T01:30:21.797Z,65.97
2023-04-09T01:40:48.570Z,65.68
2023-04-09T01:51:14.929Z,65.47
2023-04-09T02:01:46.216Z,65.46
2023-04-09T02:12:15.741Z,65.21
2023-04-09T02:22:41.752Z,65.25
2023-04-09T02:33:08.073Z,65.42
2023-04-09T02:43:34.079Z,65.35
2023-04-09T02:53:59.737Z,65.11
2023-04-09T03:04:25.677Z,64.83
2023-04-09T03:14:51.603Z,65.27
2023-04-09T03:25:19.788Z,65.23
2023-04-09T03:35:45.777Z,65.35
2023-04-09T03:46:15.823Z,65.50
2023-04-09T03:56:42.112Z,65.69
2023-04-09T04:07:16.848Z,65.90
2023-04-09T04:17:43.040Z,65.73
2023-04-09T04:28:08.829Z,66.07
2023-04-09T04:38:35.133Z,66.43
2023-04-09T04:49:01.062Z,66.72
2023-04-09T04:59:26.789Z,66.94
2023-04-09T05:09:52.869Z,66.50
2023-04-09T05:20:18.730Z,66.60
2023-04-09T05:30:47.426Z,67.38
2023-04-09T05:41:13.714Z,68.17
2023-04-09T05:51:39.800Z,69.06
2023-04-09T06:02:06.427Z,69.35
2023-04-09T06:12:32.458Z,69.15
2023-04-09T06:22:58.156Z,69.04
2023-04-09T06:33:24.266Z,68.93
2023-04-09T06:43:50.020Z,68.62
2023-04-09T06:54:16.529Z,68.44
2023-04-09T07:04:41.799Z,68.32
2023-04-09T07:15:09.936Z,67.81
2023-04-09T07:25:35.803Z,67.36
2023-04-09T07:36:02.267Z,67.48
2023-04-09T07:46:28.462Z,67.35
2023-04-09T07:56:54.530Z,67.85
2023-04-09T08:07:20.366Z,67.25
2023-04-09T08:17:46.190Z,67.03
2023-04-09T08:28:11.908Z,67.09
2023-04-09T08:38:37.650Z,66.71
2023-04-09T08:49:03.400Z,66.64
2023-04-09T08:59:29.738Z,66.67
2023-04-09T09:09:58.340Z,66.20
2023-04-09T09:20:26.753Z,65.84
2023-04-09T09:30:52.854Z,65.24
2023-04-09T09:41:20.751Z,64.92
2023-04-09T09:51:46.899Z,65.17
2023-04-09T10:02:20.837Z,64.82
2023-04-09T10:12:47.378Z,64.22
2023-04-09T10:23:23.136Z,64.14
2023-04-09T10:33:49.027Z,64.06
2023-04-09T10:44:25.235Z,64.08
2023-04-09T10:54:53.440Z,64.15
2023-04-09T11:05:27.322Z,64.01
2023-04-09T11:15:53.306Z,63.68
2023-04-09T11:26:29.603Z,62.94
2023-04-09T11:36:54.780Z,62.64
2023-04-09T11:47:21.377Z,62.02
2023-04-09T11:57:48.270Z,61.68
2023-04-09T12:08:13.951Z,61.54
2023-04-09T12:18:40.641Z,61.62
2023-04-09T12:29:06.808Z,61.06
2023-04-09T12:39:33.836Z,60.90
2023-04-09T12:49:59.063Z,60.48
2023-04-09T13:00:24.956Z,60.61
2023-04-09T13:10:51.750Z,60.61
2023-04-09T13:21:19.018Z,60.31
2023-04-09T13:31:45.131Z,60.33
2023-04-09T13:42:14.165Z,60.93
2023-04-09T13:52:40.877Z,61.12
2023-04-09T14:03:07.545Z,61.12
2023-04-09T14:13:33.983Z,60.50
2023-04-09T14:24:00.402Z,59.98
2023-04-09T14:34:26.066Z,59.83
2023-04-09T14:44:52.158Z,58.95
2023-04-09T14:55:17.672Z,59.14
2023-04-09T15:05:43.894Z,59.26
2023-04-09T15:16:11.049Z,58.55
2023-04-09T15:26:36.806Z,57.46
2023-04-09T15:37:03.061Z,57.76
2023-04-09T15:47:30.058Z,58.22
2023-04-09T15:57:57.208Z,58.42
2023-04-09T16:08:23.306Z,58.94
2023-04-09T16:18:49.534Z,59.06
2023-04-09T16:29:16.477Z,58.86
2023-04-09T16:39:42.448Z,58.74
2023-04-09T16:50:11.644Z,59.08
2023-04-09T17:00:37.275Z,58.70
2023-04-09T17:11:03.768Z,58.43
2023-04-09T17:21:29.598Z,58.14
2023-04-09T17:31:56.186Z,58.49
2023-04-09T17:42:22.229Z,59.35
2023-04-09T17:52:48.408Z,59.61
2023-04-09T18:03:14.570Z,60.03
2023-04-09T18:13:41.637Z,60.43
2023-04-09T18:24:08.043Z,60.65
2023-04-09T18:34:33.999Z,60.87
2023-04-09T18:44:59.998Z,60.76
2023-04-09T18:55:26.889Z,60.87
2023-04-09T19:05:52.856Z,61.49
2023-04-09T19:16:18.871Z,62.59
2023-04-09T19:26:44.651Z,63.01
2023-04-09T19:37:11.646Z,63.38
2023-04-09T19:47:37.480Z,63.97
2023-04-09T19:58:04.049Z,64.36
2023-04-09T20:08:29.949Z,64.21
2023-04-09T20:18:56.035Z,63.77
2023-04-09T20:29:22.590Z,63.66
2023-04-09T20:39:48.331Z,63.82
2023-04-09T20:50:14.690Z,64.15
2023-04-09T21:00:40.614Z,64.23
2023-04-09T21:11:07.088Z,64.57
2023-04-09T21:21:32.620Z,65.09
2023-04-09T21:31:58.225Z,65.42
2023-04-09T21:42:23.782Z,65.62
2023-04-09T21:52:49.830Z,65.91
2023-04-09T22:03:15.986Z,65.80
2023-04-09T22:13:42.029Z,65.87
2023-04-09T22:24:08.106Z,65.90
2023-04-09T22:34:34.893Z,66.08
2023-04-09T22:45:00.611Z,66.07
2023-04-09T22:55:26.563Z,66.41
2023-04-09T23:05:52.073Z,66.67
2023-04-09T23:16:18.397Z,66.99
2023-04-09T23:26:44.823Z,67.23
2023-04-09T23:37:10.406Z,67.05
2023-04-09T23:47:37.508Z,66.97
2023-04-09T23:58:03.083Z,66.86
